sensor_id;sensor_type;location;lat;lon;timestamp;temperature;humidity
13802;DHT22;6972;51.518;6.918;2022-09-09T00:02:15;15.80;99.90
13802;DHT22;6972;51.518;6.918;2022-09-09T00:04:49;15.80;99.90
13802;DHT22;6972;51.518;6.918;2022-09-09T00:15:24;15.80;99.90
13802;DHT22;6972;51.518;6.918;2022-09-09T00:23:11;15.80;99.90
13802;DHT22;6972;51.518;6.918;2022-09-09T00:25:49;15.80;99.90
13802;DHT22;6972;51.518;6.918;2022-09-09T00:28:23;15.70;99.90
13802;DHT22;6972;51.518;6.918;2022-09-09T00:30:50;15.70;99.90
13802;DHT22;6972;51.518;6.918;2022-09-09T00:33:22;15.70;99.90
13802;DHT22;6972;51.518;6.918;2022-09-09T00:35:54;15.70;99.90
13802;DHT22;6972;51.518;6.918;2022-09-09T00:38:35;15.60;99.90
13802;DHT22;6972;51.518;6.918;2022-09-09T00:51:15;15.50;99.90
13802;DHT22;6972;51.518;6.918;2022-09-09T00:56:56;15.60;99.90
13802;DHT22;6972;51.518;6.918;2022-09-09T00:59:49;15.60;99.90
13802;DHT22;6972;51.518;6.918;2022-09-09T01:02:37;15.70;99.90
13802;DHT22;6972;51.518;6.918;2022-09-09T01:05:17;15.70;99.90
13802;DHT22;6972;51.518;6.918;2022-09-09T01:07:48;15.70;99.90
13802;DHT22;6972;51.518;6.918;2022-09-09T01:10:39;15.70;99.90
13802;DHT22;6972;51.518;6.918;2022-09-09T01:13:14;15.80;99.90
13802;DHT22;6972;51.518;6.918;2022-09-09T01:15:44;15.80;99.90
13802;DHT22;6972;51.518;6.918;2022-09-09T01:18:14;15.80;99.90
13802;DHT22;6972;51.518;6.918;2022-09-09T01:21:14;15.80;99.90
13802;DHT22;6972;51.518;6.918;2022-09-09T01:28:49;15.60;99.90
13802;DHT22;6972;51.518;6.918;2022-09-09T01:31:21;15.50;99.90
13802;DHT22;6972;51.518;6.918;2022-09-09T01:36:24;15.40;99.90
13802;DHT22;6972;51.518;6.918;2022-09-09T01:38:52;15.40;99.90
13802;DHT22;6972;51.518;6.918;2022-09-09T01:41:18;15.50;99.90
13802;DHT22;6972;51.518;6.918;2022-09-09T01:43:47;15.40;99.90
13802;DHT22;6972;51.518;6.918;2022-09-09T01:46:13;15.30;99.90
13802;DHT22;6972;51.518;6.918;2022-09-09T01:51:05;15.10;99.90
13802;DHT22;6972;51.518;6.918;2022-09-09T02:06:48;15.10;99.90
13802;DHT22;6972;51.518;6.918;2022-09-09T02:09:18;15.10;99.90
13802;DHT22;6972;51.518;6.918;2022-09-09T02:11:47;15.20;99.90
13802;DHT22;6972;51.518;6.918;2022-09-09T02:14:22;15.20;99.90
13802;DHT22;6972;51.518;6.918;2022-09-09T02:17:11;15.30;99.90
13802;DHT22;6972;51.518;6.918;2022-09-09T02:19:41;15.30;99.90
13802;DHT22;6972;51.518;6.918;2022-09-09T02:24:39;15.40;99.90
13802;DHT22;6972;51.518;6.918;2022-09-09T02:27:08;15.40;99.90
13802;DHT22;6972;51.518;6.918;2022-09-09T02:29:40;15.40;99.90
13802;DHT22;6972;51.518;6.918;2022-09-09T02:32:21;15.50;99.90
13802;DHT22;6972;51.518;6.918;2022-09-09T02:35:09;15.50;99.90
13802;DHT22;6972;51.518;6.918;2022-09-09T02:37:38;16.10;99.90
13802;DHT22;6972;51.518;6.918;2022-09-09T02:40:10;15.60;99.90
13802;DHT22;6972;51.518;6.918;2022-09-09T02:42:41;15.60;99.90
13802;DHT22;6972;51.518;6.918;2022-09-09T02:45:09;15.70;99.90
13802;DHT22;6972;51.518;6.918;2022-09-09T02:47:55;15.60;99.90
13802;DHT22;6972;51.518;6.918;2022-09-09T02:50:43;15.70;99.90
13802;DHT22;6972;51.518;6.918;2022-09-09T02:53:18;15.70;99.90
13802;DHT22;6972;51.518;6.918;2022-09-09T02:58:21;15.70;99.90
13802;DHT22;6972;51.518;6.918;2022-09-09T03:00:48;15.70;99.90
13802;DHT22;6972;51.518;6.918;2022-09-09T03:03:15;15.70;99.90
13802;DHT22;6972;51.518;6.918;2022-09-09T03:05:42;15.70;99.90
13802;DHT22;6972;51.518;6.918;2022-09-09T03:08:08;15.70;99.90
13802;DHT22;6972;51.518;6.918;2022-09-09T03:10:34;15.80;99.90
13802;DHT22;6972;51.518;6.918;2022-09-09T03:13:00;15.60;99.90
13802;DHT22;6972;51.518;6.918;2022-09-09T03:17:56;15.50;99.90
13802;DHT22;6972;51.518;6.918;2022-09-09T03:20:23;15.40;99.90
13802;DHT22;6972;51.518;6.918;2022-09-09T03:22:50;15.40;99.90
13802;DHT22;6972;51.518;6.918;2022-09-09T03:27:41;15.30;99.90
13802;DHT22;6972;51.518;6.918;2022-09-09T03:30:07;15.30;99.90
13802;DHT22;6972;51.518;6.918;2022-09-09T03:32:33;15.30;99.90
13802;DHT22;6972;51.518;6.918;2022-09-09T03:42:22;15.20;99.90
13802;DHT22;6972;51.518;6.918;2022-09-09T03:47:19;15.20;99.90
13802;DHT22;6972;51.518;6.918;2022-09-09T03:49:47;15.20;99.90
13802;DHT22;6972;51.518;6.918;2022-09-09T03:52:14;15.20;99.90
13802;DHT22;6972;51.518;6.918;2022-09-09T04:04:26;15.10;99.90
13802;DHT22;6972;51.518;6.918;2022-09-09T04:06:53;15.00;99.90
13802;DHT22;6972;51.518;6.918;2022-09-09T04:09:21;15.10;99.90
13802;DHT22;6972;51.518;6.918;2022-09-09T04:16:39;14.90;99.90
13802;DHT22;6972;51.518;6.918;2022-09-09T04:21:38;15.00;99.90
13802;DHT22;6972;51.518;6.918;2022-09-09T04:26:31;15.00;99.90
13802;DHT22;6972;51.518;6.918;2022-09-09T04:33:52;15.10;99.90
13802;DHT22;6972;51.518;6.918;2022-09-09T04:36:21;15.10;99.90
13802;DHT22;6972;51.518;6.918;2022-09-09T04:41:14;15.20;99.90
13802;DHT22;6972;51.518;6.918;2022-09-09T04:48:34;15.30;99.90
13802;DHT22;6972;51.518;6.918;2022-09-09T04:56:01;15.30;99.90
13802;DHT22;6972;51.518;6.918;2022-09-09T04:58:27;15.50;99.90
13802;DHT22;6972;51.518;6.918;2022-09-09T05:00:53;15.50;99.90
13802;DHT22;6972;51.518;6.918;2022-09-09T05:10:38;15.60;99.90
13802;DHT22;6972;51.518;6.918;2022-09-09T05:13:05;15.70;99.90
13802;DHT22;6972;51.518;6.918;2022-09-09T05:17:59;15.70;99.90
13802;DHT22;6972;51.518;6.918;2022-09-09T05:20:25;15.70;99.90
13802;DHT22;6972;51.518;6.918;2022-09-09T05:22:55;15.70;99.90
13802;DHT22;6972;51.518;6.918;2022-09-09T05:25:20;15.70;99.90
13802;DHT22;6972;51.518;6.918;2022-09-09T05:27:47;15.70;99.90
13802;DHT22;6972;51.518;6.918;2022-09-09T05:37:31;15.80;99.90
13802;DHT22;6972;51.518;6.918;2022-09-09T05:39:57;15.80;99.90
13802;DHT22;6972;51.518;6.918;2022-09-09T05:42:23;15.90;99.90
13802;DHT22;6972;51.518;6.918;2022-09-09T05:44:49;15.70;99.90
13802;DHT22;6972;51.518;6.918;2022-09-09T05:49:42;15.70;99.90
13802;DHT22;6972;51.518;6.918;2022-09-09T05:54:35;15.70;99.90
13802;DHT22;6972;51.518;6.918;2022-09-09T05:59:29;15.80;99.90
13802;DHT22;6972;51.518;6.918;2022-09-09T06:06:47;15.80;99.90
13802;DHT22;6972;51.518;6.918;2022-09-09T06:14:07;16.00;99.90
13802;DHT22;6972;51.518;6.918;2022-09-09T06:16:33;16.10;99.90
13802;DHT22;6972;51.518;6.918;2022-09-09T06:21:34;16.20;99.90
13802;DHT22;6972;51.518;6.918;2022-09-09T06:24:03;16.20;99.90
13802;DHT22;6972;51.518;6.918;2022-09-09T06:26:33;16.20;99.90
13802;DHT22;6972;51.518;6.918;2022-09-09T06:29:01;16.20;99.90
13802;DHT22;6972;51.518;6.918;2022-09-09T06:31:30;16.30;99.90
13802;DHT22;6972;51.518;6.918;2022-09-09T06:33:57;16.20;99.90
13802;DHT22;6972;51.518;6.918;2022-09-09T06:36:29;16.40;99.90
13802;DHT22;6972;51.518;6.918;2022-09-09T06:38:55;16.50;99.90
13802;DHT22;6972;51.518;6.918;2022-09-09T06:41:22;16.50;99.90
13802;DHT22;6972;51.518;6.918;2022-09-09T06:43:48;16.60;99.90
13802;DHT22;6972;51.518;6.918;2022-09-09T06:48:44;16.80;99.90
13802;DHT22;6972;51.518;6.918;2022-09-09T06:51:19;16.90;99.90
13802;DHT22;6972;51.518;6.918;2022-09-09T06:53:50;17.00;99.90
13802;DHT22;6972;51.518;6.918;2022-09-09T06:58:43;17.00;99.90
13802;DHT22;6972;51.518;6.918;2022-09-09T07:01:11;17.10;99.90
13802;DHT22;6972;51.518;6.918;2022-09-09T07:03:38;17.20;99.90
13802;DHT22;6972;51.518;6.918;2022-09-09T07:06:04;17.20;99.90
13802;DHT22;6972;51.518;6.918;2022-09-09T07:08:31;17.30;99.90
13802;DHT22;6972;51.518;6.918;2022-09-09T07:11:03;17.40;99.90
13802;DHT22;6972;51.518;6.918;2022-09-09T07:13:30;17.40;99.90
13802;DHT22;6972;51.518;6.918;2022-09-09T07:16:06;17.40;99.90
13802;DHT22;6972;51.518;6.918;2022-09-09T07:18:33;17.40;99.90
13802;DHT22;6972;51.518;6.918;2022-09-09T07:23:24;17.50;99.90
13802;DHT22;6972;51.518;6.918;2022-09-09T07:25:51;15.70;99.90
13802;DHT22;6972;51.518;6.918;2022-09-09T07:28:19;17.40;99.90
13802;DHT22;6972;51.518;6.918;2022-09-09T07:30:53;17.50;99.90
13802;DHT22;6972;51.518;6.918;2022-09-09T07:33:20;17.50;99.90
13802;DHT22;6972;51.518;6.918;2022-09-09T07:38:11;19.40;99.90
13802;DHT22;6972;51.518;6.918;2022-09-09T07:43:04;17.90;99.90
13802;DHT22;6972;51.518;6.918;2022-09-09T07:52:51;18.10;99.90
13802;DHT22;6972;51.518;6.918;2022-09-09T07:57:43;17.90;99.90
13802;DHT22;6972;51.518;6.918;2022-09-09T08:00:09;20.30;99.90
13802;DHT22;6972;51.518;6.918;2022-09-09T08:02:36;17.80;99.90
13802;DHT22;6972;51.518;6.918;2022-09-09T08:12:24;17.70;99.90
13802;DHT22;6972;51.518;6.918;2022-09-09T08:17:16;17.60;99.90
13802;DHT22;6972;51.518;6.918;2022-09-09T08:19:42;17.70;99.90
13802;DHT22;6972;51.518;6.918;2022-09-09T08:31:56;20.50;99.90
13802;DHT22;6972;51.518;6.918;2022-09-09T08:36:50;18.10;99.90
13802;DHT22;6972;51.518;6.918;2022-09-09T08:39:18;18.20;99.90
13802;DHT22;6972;51.518;6.918;2022-09-09T08:50:28;18.60;99.90
13802;DHT22;6972;51.518;6.918;2022-09-09T09:09:14;18.70;99.90
13802;DHT22;6972;51.518;6.918;2022-09-09T09:11:55;18.70;99.90
13802;DHT22;6972;51.518;6.918;2022-09-09T09:14:25;18.80;99.90
13802;DHT22;6972;51.518;6.918;2022-09-09T09:17:06;19.00;99.90
13802;DHT22;6972;51.518;6.918;2022-09-09T09:19:35;19.30;99.90
13802;DHT22;6972;51.518;6.918;2022-09-09T09:27:25;19.90;99.90
13802;DHT22;6972;51.518;6.918;2022-09-09T09:29:55;19.80;99.90
13802;DHT22;6972;51.518;6.918;2022-09-09T09:32:24;20.00;99.90
13802;DHT22;6972;51.518;6.918;2022-09-09T09:34:55;19.80;99.90
13802;DHT22;6972;51.518;6.918;2022-09-09T09:37:34;19.60;99.90
13802;DHT22;6972;51.518;6.918;2022-09-09T09:40:16;19.70;99.90
13802;DHT22;6972;51.518;6.918;2022-09-09T09:42:53;19.80;99.90
13802;DHT22;6972;51.518;6.918;2022-09-09T09:45:35;19.90;99.90
13802;DHT22;6972;51.518;6.918;2022-09-09T09:48:10;20.10;99.90
13802;DHT22;6972;51.518;6.918;2022-09-09T09:53:25;20.10;99.90
13802;DHT22;6972;51.518;6.918;2022-09-09T09:56:03;20.00;99.90
13802;DHT22;6972;51.518;6.918;2022-09-09T09:58:32;19.90;99.90
13802;DHT22;6972;51.518;6.918;2022-09-09T10:01:00;19.80;99.90
13802;DHT22;6972;51.518;6.918;2022-09-09T10:03:34;19.70;99.90
13802;DHT22;6972;51.518;6.918;2022-09-09T10:06:03;19.70;99.90
13802;DHT22;6972;51.518;6.918;2022-09-09T10:19:04;20.00;99.90
13802;DHT22;6972;51.518;6.918;2022-09-09T10:40:38;20.40;99.90
13802;DHT22;6972;51.518;6.918;2022-09-09T10:43:31;20.30;99.90
13802;DHT22;6972;51.518;6.918;2022-09-09T10:49:28;20.20;99.90
13802;DHT22;6972;51.518;6.918;2022-09-09T10:52:15;20.20;99.90
13802;DHT22;6972;51.518;6.918;2022-09-09T10:57:49;20.00;99.90
13802;DHT22;6972;51.518;6.918;2022-09-09T11:02:51;19.80;99.90
13802;DHT22;6972;51.518;6.918;2022-09-09T11:05:27;19.80;99.90
13802;DHT22;6972;51.518;6.918;2022-09-09T11:08:08;19.80;99.90
13802;DHT22;6972;51.518;6.918;2022-09-09T11:11:06;19.80;99.90
13802;DHT22;6972;51.518;6.918;2022-09-09T11:19:04;20.10;99.90
13802;DHT22;6972;51.518;6.918;2022-09-09T11:21:38;20.20;99.90
13802;DHT22;6972;51.518;6.918;2022-09-09T11:24:14;20.30;99.90
13802;DHT22;6972;51.518;6.918;2022-09-09T11:26:47;20.40;99.90
13802;DHT22;6972;51.518;6.918;2022-09-09T11:32:00;20.50;99.90
13802;DHT22;6972;51.518;6.918;2022-09-09T11:40:01;20.40;99.90
13802;DHT22;6972;51.518;6.918;2022-09-09T11:42:35;20.30;99.90
13802;DHT22;6972;51.518;6.918;2022-09-09T11:45:23;20.20;99.90
13802;DHT22;6972;51.518;6.918;2022-09-09T11:47:58;20.20;99.90
13802;DHT22;6972;51.518;6.918;2022-09-09T11:52:50;20.50;99.90
13802;DHT22;6972;51.518;6.918;2022-09-09T11:55:28;20.90;99.90
13802;DHT22;6972;51.518;6.918;2022-09-09T12:00:36;21.50;99.90
13802;DHT22;6972;51.518;6.918;2022-09-09T12:03:03;21.50;99.90
13802;DHT22;6972;51.518;6.918;2022-09-09T12:05:44;21.30;99.90
13802;DHT22;6972;51.518;6.918;2022-09-09T12:08:15;21.20;99.90
13802;DHT22;6972;51.518;6.918;2022-09-09T12:10:56;21.20;99.90
13802;DHT22;6972;51.518;6.918;2022-09-09T12:13:26;21.20;99.90
13802;DHT22;6972;51.518;6.918;2022-09-09T12:15:54;21.10;99.90
13802;DHT22;6972;51.518;6.918;2022-09-09T12:18:33;21.20;99.90
13802;DHT22;6972;51.518;6.918;2022-09-09T12:23:55;21.20;99.90
13802;DHT22;6972;51.518;6.918;2022-09-09T12:26:59;21.00;99.90
13802;DHT22;6972;51.518;6.918;2022-09-09T12:37:27;20.40;99.90
13802;DHT22;6972;51.518;6.918;2022-09-09T12:39:55;20.50;99.90
13802;DHT22;6972;51.518;6.918;2022-09-09T12:42:22;20.60;99.90
13802;DHT22;6972;51.518;6.918;2022-09-09T12:45:21;20.70;99.90
13802;DHT22;6972;51.518;6.918;2022-09-09T12:50:25;20.60;99.90
13802;DHT22;6972;51.518;6.918;2022-09-09T12:52:59;19.90;99.90
13802;DHT22;6972;51.518;6.918;2022-09-09T12:55:32;18.90;99.90
13802;DHT22;6972;51.518;6.918;2022-09-09T12:58:01;18.60;99.90
13802;DHT22;6972;51.518;6.918;2022-09-09T13:02:58;18.20;99.90
13802;DHT22;6972;51.518;6.918;2022-09-09T13:05:33;20.40;99.90
13802;DHT22;6972;51.518;6.918;2022-09-09T13:08:08;17.80;99.90
13802;DHT22;6972;51.518;6.918;2022-09-09T13:10:49;17.60;99.90
13802;DHT22;6972;51.518;6.918;2022-09-09T13:13:41;17.50;99.90
13802;DHT22;6972;51.518;6.918;2022-09-09T13:16:23;17.30;99.90
13802;DHT22;6972;51.518;6.918;2022-09-09T13:23:49;17.10;99.90
13802;DHT22;6972;51.518;6.918;2022-09-09T13:26:25;16.90;99.90
13802;DHT22;6972;51.518;6.918;2022-09-09T13:28:54;17.00;99.90
13802;DHT22;6972;51.518;6.918;2022-09-09T13:36:13;17.90;99.90
13802;DHT22;6972;51.518;6.918;2022-09-09T13:41:24;18.50;99.90
13802;DHT22;6972;51.518;6.918;2022-09-09T13:43:50;18.80;99.90
13802;DHT22;6972;51.518;6.918;2022-09-09T13:49:21;19.00;99.90
13802;DHT22;6972;51.518;6.918;2022-09-09T13:51:49;19.00;99.90
13802;DHT22;6972;51.518;6.918;2022-09-09T13:54:17;19.10;99.90
13802;DHT22;6972;51.518;6.918;2022-09-09T13:56:44;19.20;99.90
13802;DHT22;6972;51.518;6.918;2022-09-09T13:59:15;19.30;99.90
13802;DHT22;6972;51.518;6.918;2022-09-09T14:06:34;19.70;99.90
13802;DHT22;6972;51.518;6.918;2022-09-09T14:09:04;19.80;99.90
13802;DHT22;6972;51.518;6.918;2022-09-09T14:11:29;19.80;99.90
13802;DHT22;6972;51.518;6.918;2022-09-09T14:16:21;19.50;99.90
13802;DHT22;6972;51.518;6.918;2022-09-09T14:18:47;19.70;99.90
13802;DHT22;6972;51.518;6.918;2022-09-09T14:21:13;19.80;99.90
13802;DHT22;6972;51.518;6.918;2022-09-09T14:26:07;19.80;99.90
13802;DHT22;6972;51.518;6.918;2022-09-09T14:28:34;19.80;99.90
13802;DHT22;6972;51.518;6.918;2022-09-09T14:31:01;19.70;99.90
13802;DHT22;6972;51.518;6.918;2022-09-09T14:36:01;20.00;99.90
13802;DHT22;6972;51.518;6.918;2022-09-09T14:38:35;20.10;99.90
13802;DHT22;6972;51.518;6.918;2022-09-09T14:41:09;20.20;99.90
13802;DHT22;6972;51.518;6.918;2022-09-09T14:43:37;19.90;99.90
13802;DHT22;6972;51.518;6.918;2022-09-09T14:46:08;19.70;99.90
13802;DHT22;6972;51.518;6.918;2022-09-09T14:48:35;19.40;99.90
13802;DHT22;6972;51.518;6.918;2022-09-09T14:51:18;19.10;99.90
13802;DHT22;6972;51.518;6.918;2022-09-09T14:53:50;18.80;99.90
13802;DHT22;6972;51.518;6.918;2022-09-09T14:56:18;18.70;99.90
13802;DHT22;6972;51.518;6.918;2022-09-09T14:58:48;17.90;99.90
13802;DHT22;6972;51.518;6.918;2022-09-09T15:01:16;17.70;99.90
13802;DHT22;6972;51.518;6.918;2022-09-09T15:03:48;17.20;99.90
13802;DHT22;6972;51.518;6.918;2022-09-09T15:06:14;16.60;99.90
13802;DHT22;6972;51.518;6.918;2022-09-09T15:08:42;16.40;99.90
13802;DHT22;6972;51.518;6.918;2022-09-09T15:11:08;16.20;99.90
13802;DHT22;6972;51.518;6.918;2022-09-09T15:13:34;16.00;99.90
13802;DHT22;6972;51.518;6.918;2022-09-09T15:21:04;16.30;99.90
13802;DHT22;6972;51.518;6.918;2022-09-09T15:23:34;16.40;99.90
13802;DHT22;6972;51.518;6.918;2022-09-09T15:28:26;16.50;99.90
13802;DHT22;6972;51.518;6.918;2022-09-09T15:30:53;16.70;99.90
13802;DHT22;6972;51.518;6.918;2022-09-09T15:33:20;16.70;99.90
13802;DHT22;6972;51.518;6.918;2022-09-09T15:40:39;16.90;99.90
13802;DHT22;6972;51.518;6.918;2022-09-09T15:43:06;17.00;99.90
13802;DHT22;6972;51.518;6.918;2022-09-09T15:45:36;17.10;99.90
13802;DHT22;6972;51.518;6.918;2022-09-09T15:48:03;17.20;99.90
13802;DHT22;6972;51.518;6.918;2022-09-09T15:55:22;17.70;99.90
13802;DHT22;6972;51.518;6.918;2022-09-09T15:57:52;18.10;99.90
13802;DHT22;6972;51.518;6.918;2022-09-09T16:00:21;18.50;99.90
13802;DHT22;6972;51.518;6.918;2022-09-09T16:02:48;18.50;99.90
13802;DHT22;6972;51.518;6.918;2022-09-09T16:05:14;18.70;99.90
13802;DHT22;6972;51.518;6.918;2022-09-09T16:07:40;18.90;99.90
13802;DHT22;6972;51.518;6.918;2022-09-09T16:10:08;18.80;99.90
13802;DHT22;6972;51.518;6.918;2022-09-09T16:12:34;18.80;99.90
13802;DHT22;6972;51.518;6.918;2022-09-09T16:34:30;18.40;99.90
13802;DHT22;6972;51.518;6.918;2022-09-09T16:44:15;18.00;99.90
13802;DHT22;6972;51.518;6.918;2022-09-09T16:46:43;18.00;99.90
13802;DHT22;6972;51.518;6.918;2022-09-09T16:49:11;18.00;99.90
13802;DHT22;6972;51.518;6.918;2022-09-09T16:51:40;17.90;99.90
13802;DHT22;6972;51.518;6.918;2022-09-09T16:54:07;17.80;99.90
13802;DHT22;6972;51.518;6.918;2022-09-09T16:56:35;17.90;99.90
13802;DHT22;6972;51.518;6.918;2022-09-09T16:59:07;17.90;99.90
13802;DHT22;6972;51.518;6.918;2022-09-09T17:01:35;17.70;99.90
13802;DHT22;6972;51.518;6.918;2022-09-09T17:04:08;17.70;99.90
13802;DHT22;6972;51.518;6.918;2022-09-09T17:06:35;17.80;99.90
13802;DHT22;6972;51.518;6.918;2022-09-09T17:09:05;17.70;99.90
13802;DHT22;6972;51.518;6.918;2022-09-09T17:13:57;17.60;99.90
13802;DHT22;6972;51.518;6.918;2022-09-09T17:16:26;17.60;99.90
13802;DHT22;6972;51.518;6.918;2022-09-09T17:21:21;17.50;99.90
13802;DHT22;6972;51.518;6.918;2022-09-09T17:26:16;17.40;99.90
13802;DHT22;6972;51.518;6.918;2022-09-09T17:28:43;17.30;99.90
13802;DHT22;6972;51.518;6.918;2022-09-09T17:31:10;17.30;99.90
13802;DHT22;6972;51.518;6.918;2022-09-09T17:33:43;17.40;99.90
13802;DHT22;6972;51.518;6.918;2022-09-09T17:36:12;17.20;99.90
13802;DHT22;6972;51.518;6.918;2022-09-09T17:41:07;17.10;99.90
13802;DHT22;6972;51.518;6.918;2022-09-09T17:48:39;17.10;99.90
13802;DHT22;6972;51.518;6.918;2022-09-09T17:51:07;17.10;99.90
13802;DHT22;6972;51.518;6.918;2022-09-09T17:53:38;17.10;99.90
13802;DHT22;6972;51.518;6.918;2022-09-09T17:56:06;17.00;99.90
13802;DHT22;6972;51.518;6.918;2022-09-09T18:01:07;16.80;99.90
13802;DHT22;6972;51.518;6.918;2022-09-09T18:03:34;17.10;99.90
13802;DHT22;6972;51.518;6.918;2022-09-09T18:06:06;17.10;99.90
13802;DHT22;6972;51.518;6.918;2022-09-09T18:08:32;17.10;99.90
13802;DHT22;6972;51.518;6.918;2022-09-09T18:10:58;17.00;99.90
13802;DHT22;6972;51.518;6.918;2022-09-09T18:18:21;16.90;99.90
13802;DHT22;6972;51.518;6.918;2022-09-09T18:20:58;17.00;99.90
13802;DHT22;6972;51.518;6.918;2022-09-09T18:42:57;16.90;99.90
13802;DHT22;6972;51.518;6.918;2022-09-09T18:52:41;16.90;99.90
13802;DHT22;6972;51.518;6.918;2022-09-09T18:55:08;16.90;99.90
13802;DHT22;6972;51.518;6.918;2022-09-09T18:57:34;16.90;99.90
13802;DHT22;6972;51.518;6.918;2022-09-09T19:00:00;16.90;99.90
13802;DHT22;6972;51.518;6.918;2022-09-09T19:04:52;17.00;99.90
13802;DHT22;6972;51.518;6.918;2022-09-09T19:19:32;16.90;99.90
13802;DHT22;6972;51.518;6.918;2022-09-09T19:22:00;16.90;99.90
13802;DHT22;6972;51.518;6.918;2022-09-09T19:24:31;16.80;99.90
13802;DHT22;6972;51.518;6.918;2022-09-09T19:27:00;16.90;99.90
13802;DHT22;6972;51.518;6.918;2022-09-09T19:29:30;16.90;99.90
13802;DHT22;6972;51.518;6.918;2022-09-09T19:31:58;16.80;99.90
13802;DHT22;6972;51.518;6.918;2022-09-09T19:34:25;16.80;99.90
13802;DHT22;6972;51.518;6.918;2022-09-09T19:39:17;16.80;99.90
13802;DHT22;6972;51.518;6.918;2022-09-09T19:41:43;16.80;99.90
13802;DHT22;6972;51.518;6.918;2022-09-09T19:44:12;16.80;99.90
13802;DHT22;6972;51.518;6.918;2022-09-09T19:46:39;16.80;99.90
13802;DHT22;6972;51.518;6.918;2022-09-09T19:49:05;16.70;99.90
13802;DHT22;6972;51.518;6.918;2022-09-09T19:51:32;16.70;99.90
13802;DHT22;6972;51.518;6.918;2022-09-09T19:54:04;16.60;99.90
13802;DHT22;6972;51.518;6.918;2022-09-09T19:56:31;16.60;99.90
13802;DHT22;6972;51.518;6.918;2022-09-09T19:58:58;16.50;99.90
13802;DHT22;6972;51.518;6.918;2022-09-09T20:01:29;16.50;99.90
13802;DHT22;6972;51.518;6.918;2022-09-09T20:03:58;16.50;99.90
13802;DHT22;6972;51.518;6.918;2022-09-09T20:06:28;16.50;99.90
13802;DHT22;6972;51.518;6.918;2022-09-09T20:08:55;16.30;99.90
13802;DHT22;6972;51.518;6.918;2022-09-09T20:11:21;16.40;99.90
13802;DHT22;6972;51.518;6.918;2022-09-09T20:13:49;16.30;99.90
13802;DHT22;6972;51.518;6.918;2022-09-09T20:16:21;16.30;99.90
13802;DHT22;6972;51.518;6.918;2022-09-09T20:18:49;16.30;99.90
13802;DHT22;6972;51.518;6.918;2022-09-09T20:21:19;16.20;99.90
13802;DHT22;6972;51.518;6.918;2022-09-09T20:23:49;16.20;99.90
13802;DHT22;6972;51.518;6.918;2022-09-09T20:26:21;16.40;99.90
13802;DHT22;6972;51.518;6.918;2022-09-09T20:28:49;16.30;99.90
13802;DHT22;6972;51.518;6.918;2022-09-09T20:31:23;16.30;99.90
13802;DHT22;6972;51.518;6.918;2022-09-09T20:33:50;16.30;99.90
13802;DHT22;6972;51.518;6.918;2022-09-09T20:36:18;16.30;99.90
13802;DHT22;6972;51.518;6.918;2022-09-09T20:39:01;16.40;99.90
13802;DHT22;6972;51.518;6.918;2022-09-09T20:41:29;16.40;99.90
13802;DHT22;6972;51.518;6.918;2022-09-09T20:43:58;16.40;99.90
13802;DHT22;6972;51.518;6.918;2022-09-09T20:46:38;16.40;99.90
13802;DHT22;6972;51.518;6.918;2022-09-09T20:49:05;16.40;99.90
13802;DHT22;6972;51.518;6.918;2022-09-09T20:51:32;16.50;99.90
13802;DHT22;6972;51.518;6.918;2022-09-09T20:54:02;16.40;99.90
13802;DHT22;6972;51.518;6.918;2022-09-09T20:56:32;16.40;99.90
13802;DHT22;6972;51.518;6.918;2022-09-09T20:58:59;16.50;99.90
13802;DHT22;6972;51.518;6.918;2022-09-09T21:06:21;16.40;99.90
13802;DHT22;6972;51.518;6.918;2022-09-09T21:13:40;16.50;99.90
13802;DHT22;6972;51.518;6.918;2022-09-09T21:16:07;16.50;99.90
13802;DHT22;6972;51.518;6.918;2022-09-09T21:18:34;16.50;99.90
13802;DHT22;6972;51.518;6.918;2022-09-09T21:21:01;16.40;99.90
13802;DHT22;6972;51.518;6.918;2022-09-09T21:23:27;16.40;99.90
13802;DHT22;6972;51.518;6.918;2022-09-09T21:25:54;16.40;99.90
13802;DHT22;6972;51.518;6.918;2022-09-09T21:28:20;16.50;99.90
13802;DHT22;6972;51.518;6.918;2022-09-09T21:30:51;16.30;99.90
13802;DHT22;6972;51.518;6.918;2022-09-09T21:33:21;16.40;99.90
13802;DHT22;6972;51.518;6.918;2022-09-09T21:35:47;16.30;99.90
13802;DHT22;6972;51.518;6.918;2022-09-09T21:38:15;16.40;99.90
13802;DHT22;6972;51.518;6.918;2022-09-09T21:40:42;16.40;99.90
13802;DHT22;6972;51.518;6.918;2022-09-09T21:43:11;16.40;99.90
13802;DHT22;6972;51.518;6.918;2022-09-09T21:45:38;16.40;99.90
13802;DHT22;6972;51.518;6.918;2022-09-09T21:48:11;16.30;99.90
13802;DHT22;6972;51.518;6.918;2022-09-09T21:50:41;16.40;99.90
13802;DHT22;6972;51.518;6.918;2022-09-09T21:55:36;16.40;99.90
13802;DHT22;6972;51.518;6.918;2022-09-09T21:58:03;16.30;99.90
13802;DHT22;6972;51.518;6.918;2022-09-09T22:03:00;16.30;99.90
13802;DHT22;6972;51.518;6.918;2022-09-09T22:10:22;16.20;99.90
13802;DHT22;6972;51.518;6.918;2022-09-09T22:12:48;16.20;99.90
13802;DHT22;6972;51.518;6.918;2022-09-09T22:15:14;16.20;99.90
13802;DHT22;6972;51.518;6.918;2022-09-09T22:17:40;16.20;99.90
13802;DHT22;6972;51.518;6.918;2022-09-09T22:20:07;16.30;99.90
13802;DHT22;6972;51.518;6.918;2022-09-09T22:46:58;16.40;99.90
13802;DHT22;6972;51.518;6.918;2022-09-09T22:51:51;16.00;99.90
13802;DHT22;6972;51.518;6.918;2022-09-09T22:56:52;16.10;99.90
13802;DHT22;6972;51.518;6.918;2022-09-09T22:59:18;16.00;99.90
13802;DHT22;6972;51.518;6.918;2022-09-09T23:01:44;15.90;99.90
13802;DHT22;6972;51.518;6.918;2022-09-09T23:04:10;16.10;99.90
13802;DHT22;6972;51.518;6.918;2022-09-09T23:06:37;15.90;99.90
13802;DHT22;6972;51.518;6.918;2022-09-09T23:09:04;15.90;99.90
13802;DHT22;6972;51.518;6.918;2022-09-09T23:11:33;15.80;99.90
13802;DHT22;6972;51.518;6.918;2022-09-09T23:14:01;17.40;99.90
13802;DHT22;6972;51.518;6.918;2022-09-09T23:16:29;15.70;99.90
13802;DHT22;6972;51.518;6.918;2022-09-09T23:21:26;15.60;99.90
13802;DHT22;6972;51.518;6.918;2022-09-09T23:23:54;15.70;99.90
13802;DHT22;6972;51.518;6.918;2022-09-09T23:26:20;15.70;99.90
13802;DHT22;6972;51.518;6.918;2022-09-09T23:28:48;15.70;99.90
13802;DHT22;6972;51.518;6.918;2022-09-09T23:31:16;15.60;99.90
13802;DHT22;6972;51.518;6.918;2022-09-09T23:33:44;15.60;99.90
13802;DHT22;6972;51.518;6.918;2022-09-09T23:36:17;15.60;99.90
13802;DHT22;6972;51.518;6.918;2022-09-09T23:38:44;15.70;99.90
13802;DHT22;6972;51.518;6.918;2022-09-09T23:41:12;15.80;99.90
13802;DHT22;6972;51.518;6.918;2022-09-09T23:43:38;15.70;99.90
13802;DHT22;6972;51.518;6.918;2022-09-09T23:46:09;15.70;99.90
13802;DHT22;6972;51.518;6.918;2022-09-09T23:48:35;15.70;99.90
13802;DHT22;6972;51.518;6.918;2022-09-09T23:51:07;15.90;99.90
13802;DHT22;6972;51.518;6.918;2022-09-09T23:53:35;15.90;99.90
13802;DHT22;6972;51.518;6.918;2022-09-09T23:56:03;15.90;99.90
13802;DHT22;6972;51.518;6.918;2022-09-09T23:58:32;16.00;99.90
